Flight Track Log - Related Links

Times and Time Zones

All times are in EDT time to prevent confusion due to time zone crossing. See the N829LB flight status page for this flight to view local times or setup timezone preferences in your user account.

Time Position Orientation Groundspeed Altitude Reporting Facility
EDT Latitude Longitude Course Direction KTS MPH feet Rate Location/Type
Tue 09:03:42 AM 35.0220 -85.3920 288° West 128 147 6,200  Level FlightAware ADS-B
Tue 09:04:00 AM 35.0868 -85.4404 288° West  Level FlightAware Approximate
Tue 09:04:17 AM 35.0280 -85.4140 288° West 128 147 6,600  Level FlightAware ADS-B
Tue 09:04:42 AM 35.0320 -85.4310 286° West 128 147 6,600 829 Level FlightAware ADS-B
Tue 09:06:20 AM 35.0478 -85.4972 285° West 127 146 8,300 438 Climbing Memphis Center
Tue 09:07:00 AM 35.0936 -85.5175 311° West  Level FlightAware Approximate
Tue 09:08:00 AM 35.1049 -85.5655 287° West  Level Estimated
Tue 09:09:00 AM 35.1161 -85.6135 270° West  Level Estimated
Tue 09:10:00 AM 35.1369 -85.6661 285° West  Level FlightAware Approximate
Tue 09:11:00 AM 35.1477 -85.7142 285° West  Level FlightAware Approximate
Tue 09:11:47 AM 35.1050 -85.7340 285° West 153 176 9,700  Level FlightAware ADS-B
Tue 09:12:12 AM 35.1100 -85.7550 286° West 153 176 9,700  Level FlightAware ADS-B
Tue 09:13:02 AM 35.1200 -85.8010 285° West 156 180 9,700  Level FlightAware ADS-B
Tue 09:13:42 AM 35.1270 -85.8310 286° West 155 178 9,700  Level FlightAware ADS-B
Tue 09:14:02 AM 35.1310 -85.8450 289° West 155 178 9,700  Level FlightAware ADS-B
Tue 09:14:22 AM 35.1340 -85.8590 285° West 155 178 9,700  Level FlightAware ADS-B
Tue 09:14:52 AM 35.1390 -85.8810 286° West 155 178 9,700 310 Level FlightAware ADS-B
Tue 09:15:20 AM 35.1467 -85.9131 286° West 157 181 10,000 205 Climbing Memphis Center
Tue 09:16:20 AM 35.1589 -85.9633 287° West 157 181 10,000  Level Memphis Center
Tue 09:17:20 AM 35.1711 -86.0133 287° West 162 186 10,000  Level Memphis Center
Tue 09:18:20 AM 35.1811 -86.0636 284° West 162 186 10,000  Level Memphis Center
Tue 09:19:20 AM 35.1933 -86.1139 287° West 162 186 10,000  Level Memphis Center
Tue 09:20:20 AM 35.2056 -86.1614 287° West 162 186 10,000  Level Memphis Center
Tue 09:21:20 AM 35.2175 -86.2117 286° West 162 186 10,000  Level Memphis Center
Tue 09:22:20 AM 35.2297 -86.2619 287° West 160 184 10,000  Level Memphis Center
Tue 09:23:20 AM 35.2419 -86.3200 284° West 160 184 10,000  Level Memphis Center
Tue 09:24:20 AM 35.2542 -86.3703 287° West 165 190 10,000  Level Memphis Center
Tue 09:25:20 AM 35.2661 -86.4231 286° West 160 184 10,000  Level Memphis Center
Tue 09:26:20 AM 35.2761 -86.4733 284° West 160 184 10,000  Level Memphis Center
Tue 09:27:20 AM 35.2881 -86.5236 286° West 160 184 10,000  Level Memphis Center
Tue 09:28:20 AM 35.3000 -86.5689 288° West 160 184 10,000  Level Memphis Center
Tue 09:29:20 AM 35.3119 -86.6244 285° West 160 184 10,000 50 Level Memphis Center
Tue 09:30:20 AM 35.3239 -86.6722 287° West 155 178 10,100 50 Climbing Memphis Center
Tue 09:31:20 AM 35.3314 -86.7175 281° West 155 178 10,100  Level Memphis Center
Tue 09:32:20 AM 35.3456 -86.7681 289° West 155 178 10,100  Level Memphis Center
Tue 09:33:20 AM 35.3572 -86.8183 286° West 160 184 10,100  Level Memphis Center
Tue 09:34:20 AM 35.3694 -86.8739 285° West 160 184 10,100 -50 Level Memphis Center
Tue 09:35:20 AM 35.3811 -86.9192 288° West 160 184 10,000 -50 Descending Memphis Center
Tue 09:36:20 AM 35.3906 -86.9672 284° West 154 177 10,000  Level Memphis Center
Tue 09:37:20 AM 35.4025 -87.0228 285° West 154 177 10,000  Level Memphis Center
Tue 09:38:20 AM 35.4144 -87.0733 286° West 159 183 10,000  Level Memphis Center
Tue 09:39:20 AM 35.4261 -87.1236 286° West 159 183 10,000  Level Memphis Center
Tue 09:40:20 AM 35.4381 -87.1767 285° West 159 183 10,000  Level Memphis Center
Tue 09:41:20 AM 35.4494 -87.2247 286° West 159 183 10,000  Level Memphis Center
Tue 09:42:20 AM 35.4592 -87.2728 284° West 159 183 10,000  Level Memphis Center
Tue 09:43:20 AM 35.4708 -87.3208 287° West 159 183 10,000  Level Memphis Center
Tue 09:44:20 AM 35.4825 -87.3739 285° West 159 183 10,000  Level Memphis Center
Tue 09:45:20 AM 35.4919 -87.4194 284° West 159 183 10,000  Level Memphis Center
Tue 09:46:20 AM 35.5033 -87.4675 286° West 159 183 10,000  Level Memphis Center
Tue 09:47:20 AM 35.5150 -87.5181 286° West 159 183 10,000  Level Memphis Center
Tue 09:48:20 AM 35.5267 -87.5714 285° West 154 177 10,000  Level Memphis Center
Tue 09:49:20 AM 35.5383 -87.6219 286° West 159 183 10,000  Level Memphis Center
Tue 09:50:20 AM 35.5497 -87.6725 285° West 159 183 10,000  Level Memphis Center
Tue 09:51:20 AM 35.5592 -87.7283 282° West 159 183 10,000  Level Memphis Center
Tue 09:52:20 AM 35.5728 -87.7789 288° West 159 183 10,000  Level Memphis Center
Tue 09:53:20 AM 35.5822 -87.8297 283° West 159 183 10,000  Level Memphis Center
Tue 09:54:20 AM 35.5936 -87.8806 285° West 159 183 10,000  Level Memphis Center
Tue 09:55:20 AM 35.6050 -87.9286 286° West 159 183 10,000  Level Memphis Center
Tue 09:56:20 AM 35.6167 -87.9819 285° West 159 183 10,000  Level Memphis Center
Tue 09:57:20 AM 35.6281 -88.0328 285° West 159 183 10,000  Level Memphis Center
Tue 09:58:20 AM 35.6392 -88.0811 286° West 159 183 10,000  Level Memphis Center
Tue 09:59:20 AM 35.6506 -88.1342 285° West 159 183 10,000  Level Memphis Center
Tue 10:00:20 AM 35.6619 -88.1800 287° West 153 176 10,000  Level Memphis Center
Tue 10:01:20 AM 35.6711 -88.2308 283° West 153 176 10,000  Level Memphis Center
Tue 10:02:20 AM 35.6825 -88.2792 286° West 153 176 10,000  Level Memphis Center
Tue 10:03:20 AM 35.6936 -88.3275 286° West 153 176 10,000  Level Memphis Center
Tue 10:04:20 AM 35.7028 -88.3808 282° West 153 176 10,000  Level Memphis Center
Tue 10:05:20 AM 35.7161 -88.4317 288° West 153 176 10,000  Level Memphis Center
Tue 10:06:20 AM 35.7253 -88.4825 283° West 153 176 10,000  Level Memphis Center
Tue 10:07:20 AM 35.7344 -88.5336 282° West 158 182 10,000  Level Memphis Center
Tue 10:08:20 AM 35.7456 -88.5844 285° West 158 182 10,000  Level Memphis Center
Tue 10:09:20 AM 35.7567 -88.6353 285° West 158 182 10,000  Level Memphis Center
Tue 10:10:20 AM 35.7658 -88.6864 282° West 158 182 10,000  Level Memphis Center
Tue 10:11:20 AM 35.7789 -88.7397 287° West 158 182 10,000  Level Memphis Center
Tue 10:12:20 AM 35.7878 -88.7908 282° West 163 188 10,000  Level Memphis Center
Tue 10:13:20 AM 35.7989 -88.8392 286° West 158 182 10,000  Level Memphis Center
Tue 10:14:20 AM 35.8100 -88.8903 285° West 158 182 10,000  Level Memphis Center
Tue 10:15:20 AM 35.8189 -88.9414 282° West 158 182 10,000  Level Memphis Center
Tue 10:16:20 AM 35.8300 -88.9947 284° West 163 188 10,000  Level Memphis Center
Tue 10:17:20 AM 35.8408 -89.0458 285° West 163 188 10,000  Level Memphis Center
Tue 10:18:20 AM 35.8475 -89.0894 281° West 163 188 10,000  Level Memphis Center
Tue 10:19:20 AM 35.8586 -89.1403 285° West 163 188 10,000  Level Memphis Center
Tue 10:20:20 AM 35.8717 -89.1914 288° West 163 188 10,000  Level Memphis Center
Tue 10:21:20 AM 35.8803 -89.2425 282° West 163 188 10,000  Level Memphis Center
Tue 10:22:20 AM 35.8914 -89.2961 284° West 163 188 10,000  Level Memphis Center
Tue 10:23:20 AM 35.9022 -89.3472 285° West 163 188 10,000  Level Memphis Center
Tue 10:24:20 AM 35.9108 -89.3986 282° West 163 188 10,000  Level Memphis Center
Tue 10:25:20 AM 35.9239 -89.4547 286° West 163 188 10,000  Level Memphis Center
Tue 10:26:20 AM 35.9306 -89.5008 280° West 163 188 10,000  Level Memphis Center
Tue 10:27:20 AM 35.9411 -89.5519 284° West 163 188 10,000  Level Memphis Center
Tue 10:28:20 AM 35.9519 -89.6031 285° West 163 188 10,000  Level Memphis Center
Tue 10:29:20 AM 35.9628 -89.6517 285° West 163 188 10,000  Level Memphis Center
Tue 10:30:20 AM 35.9733 -89.7031 284° West 158 182 10,000  Level Memphis Center
Tue 10:31:20 AM 35.9842 -89.7567 284° West 158 182 10,000 50 Level Memphis Center
Tue 10:32:20 AM 35.9947 -89.8053 285° West 158 182 10,100 50 Climbing Memphis Center
Tue 10:33:20 AM 36.0033 -89.8592 281° West 158 182 10,100  Level Memphis Center
Tue 10:34:20 AM 36.0139 -89.9106 284° West 158 182 10,100 -50 Level Memphis Center
Tue 10:35:20 AM 36.0244 -89.9617 284° West 158 182 10,000  Descending Memphis Center
Tue 10:36:20 AM 36.0350 -90.0131 284° West 158 182 10,100 50 Climbing Memphis Center
Tue 10:37:20 AM 36.0456 -90.0669 284° West 158 182 10,100  Level Memphis Center
Tue 10:38:20 AM 36.0561 -90.1208 284° West 158 182 10,100  Level Memphis Center
Tue 10:39:20 AM 36.0667 -90.1722 284° West 158 182 10,100  Level Memphis Center
Tue 10:40:20 AM 36.0772 -90.2233 284° West 158 182 10,100  Level Memphis Center
Tue 10:41:20 AM 36.0878 -90.2772 284° West 158 182 10,100  Level Memphis Center
Tue 10:42:20 AM 36.0961 -90.3314 281° West 158 182 10,100  Level Memphis Center
Tue 10:43:20 AM 36.1086 -90.3853 286° West 158 182 10,100  Level Memphis Center
Tue 10:44:20 AM 36.1189 -90.4417 283° West 158 182 10,100  Level Memphis Center
Tue 10:45:20 AM 36.1272 -90.4931 281° West 158 182 10,100  Level Memphis Center
Tue 10:46:20 AM 36.1397 -90.5472 286° West 163 188 10,100  Level Memphis Center
Tue 10:47:20 AM 36.1522 -90.5986 287° West 163 188 10,100 -50 Level Memphis Center
Tue 10:48:20 AM 36.1603 -90.6553 280° West 163 188 10,000  Descending Memphis Center
Tue 10:49:20 AM 36.1686 -90.7067 281° West 163 188 10,100 50 Climbing Memphis Center
Tue 10:50:20 AM 36.1808 -90.7608 286° West 163 188 10,100  Level Memphis Center
Tue 10:51:20 AM 36.1892 -90.8147 281° West 163 188 10,100  Level Memphis Center
Tue 10:52:20 AM 36.1992 -90.8714 282° West 163 188 10,100  Level Memphis Center
Tue 10:53:20 AM 36.2094 -90.9256 283° West 163 188 10,100  Level Memphis Center
Tue 10:54:20 AM 36.2197 -90.9769 284° West 163 188 10,100  Level Memphis Center
Tue 10:55:20 AM 36.2319 -91.0311 286° West 163 188 10,100  Level Memphis Center
Tue 10:56:20 AM 36.2419 -91.0878 282° West 163 188 10,100  Level Memphis Center
Tue 10:57:20 AM 36.2522 -91.1394 284° West 163 188 10,100  Level Memphis Center
Tue 10:58:20 AM 36.2642 -91.1961 285° West 163 188 10,100  Level Memphis Center
Tue 10:59:20 AM 36.2658 -91.2475 272° West 163 188 10,100  Level Memphis Center
Tue 11:00:20 AM 36.2864 -91.3044 294° West 163 188 10,100 -50 Level Memphis Center
Tue 11:01:20 AM 36.2922 -91.3586 278° West 163 188 10,000  Descending Memphis Center
Tue 11:02:20 AM 36.3022 -91.4153 282° West 163 188 10,100  Climbing Memphis Center
Tue 11:03:20 AM 36.3142 -91.4697 285° West 163 188 10,000 -50 Descending Memphis Center
Tue 11:04:20 AM 36.3219 -91.5239 280° West 163 188 10,000  Level Memphis Center
Tue 11:05:20 AM 36.3342 -91.5781 286° West 163 188 10,000  Level Memphis Center
Tue 11:06:20 AM 36.3439 -91.6322 283° West 163 188 10,000  Level Memphis Center
Tue 11:07:20 AM 36.3517 -91.6867 280° West 163 188 10,000  Level Memphis Center
Tue 11:08:20 AM 36.3617 -91.7408 283° West 163 188 10,000  Level Memphis Center
Tue 11:09:20 AM 36.3775 -91.7978 289° West 163 188 10,000  Level Memphis Center
Tue 11:10:20 AM 36.3872 -91.8547 282° West 163 188 10,000  Level Memphis Center
Tue 11:11:20 AM 36.3931 -91.8961 280° West 163 188 10,000  Level Memphis Center
Tue 11:12:20 AM 36.4047 -91.9581 283° West 175 201 10,000  Level Memphis Center
Tue 11:13:20 AM 36.4167 -92.0153 285° West 175 201 10,000  Level Memphis Center
Tue 11:14:20 AM 36.4242 -92.0747 279° West 175 201 10,000  Level Memphis Center
Tue 11:15:20 AM 36.4339 -92.1239 284° West 169 194 10,000  Level Memphis Center
Tue 11:16:20 AM 36.4433 -92.1808 282° West 169 194 10,000 -100 Level Memphis Center
Tue 11:17:20 AM 36.4511 -92.2325 281° West 162 186 9,800 -350 Descending Memphis Center
Tue 11:18:20 AM 36.4628 -92.2894 284° West 167 192 9,300 -500 Descending Memphis Center
Tue 11:19:20 AM 36.4722 -92.3492 281° West 167 192 8,800 -550 Descending Memphis Center
Tue 11:20:20 AM 36.4858 -92.4036 287° West 167 192 8,200 -550 Descending Memphis Center
Tue 11:21:20 AM 36.4953 -92.4608 282° West 167 192 7,700 -500 Descending Memphis Center
Tue 11:22:20 AM 36.5047 -92.5153 282° West 162 186 7,200 -500 Descending Memphis Center
Tue 11:23:20 AM 36.5144 -92.5672 283° West 162 186 6,700 -450 Descending Memphis Center
Tue 11:24:20 AM 36.5219 -92.6086 283° West 162 186 6,300 -400 Descending Memphis Center

Login

Don't have an account? Register now (free) for customized features, flight alerts, and more!